createdAt,value
2019-02-02T00:00:01.926Z,93.80
2019-02-02T00:01:21.740Z,94.00
2019-02-02T00:02:27.546Z,94.10
2019-02-02T00:03:31.541Z,94.50
2019-02-02T00:04:35.638Z,94.30
2019-02-02T00:05:39.558Z,94.30
2019-02-02T00:06:43.550Z,94.00
2019-02-02T00:07:47.656Z,93.90
2019-02-02T00:08:51.591Z,93.30
2019-02-02T00:09:55.698Z,93.40
2019-02-02T00:10:59.707Z,93.60
2019-02-02T00:12:03.836Z,93.50
2019-02-02T00:13:07.965Z,93.60
2019-02-02T00:14:12.109Z,93.40
2019-02-02T00:15:16.049Z,93.70
2019-02-02T00:16:20.071Z,93.80
2019-02-02T00:17:24.059Z,94.40
2019-02-02T00:18:28.181Z,94.20
2019-02-02T00:19:32.155Z,94.30
2019-02-02T00:20:36.066Z,94.10
2019-02-02T00:21:40.198Z,94.50
2019-02-02T00:22:44.193Z,94.30
2019-02-02T00:23:48.071Z,94.40
2019-02-02T00:24:52.020Z,94.00
2019-02-02T00:25:55.993Z,94.50
2019-02-02T00:27:00.074Z,94.70
2019-02-02T00:28:03.984Z,94.90
2019-02-02T00:29:07.881Z,95.00
2019-02-02T00:30:12.559Z,95.00
2019-02-02T00:31:16.580Z,94.90
2019-02-02T00:32:20.674Z,94.60
2019-02-02T00:33:24.694Z,94.60
2019-02-02T00:34:28.862Z,94.60
2019-02-02T00:35:32.774Z,94.30
2019-02-02T00:36:36.739Z,94.70
2019-02-02T00:37:40.854Z,94.20
2019-02-02T00:38:44.966Z,94.50
2019-02-02T00:39:48.995Z,94.30
2019-02-02T00:40:53.018Z,94.30
2019-02-02T00:41:56.919Z,94.60
2019-02-02T00:43:00.963Z,94.50
2019-02-02T00:44:05.304Z,94.50
2019-02-02T00:45:10.175Z,94.60
2019-02-02T00:46:14.181Z,94.50
2019-02-02T00:47:18.546Z,94.50
2019-02-02T00:48:22.723Z,95.20
2019-02-02T00:49:26.839Z,95.40
2019-02-02T00:50:30.635Z,94.60
2019-02-02T00:51:34.773Z,94.30
2019-02-02T00:52:38.679Z,94.50
2019-02-02T00:53:42.787Z,94.30
2019-02-02T00:54:46.794Z,93.70
2019-02-02T00:55:50.759Z,93.90
2019-02-02T00:56:54.913Z,94.00
2019-02-02T00:57:58.829Z,93.80
2019-02-02T00:59:02.747Z,94.10
2019-02-02T01:00:08.648Z,94.10
2019-02-02T01:01:12.605Z,94.10
2019-02-02T01:02:16.439Z,94.50
2019-02-02T01:03:20.531Z,94.40
2019-02-02T01:04:24.719Z,94.80
2019-02-02T01:05:28.730Z,94.50
2019-02-02T01:06:32.665Z,94.70
2019-02-02T01:07:36.535Z,94.50
2019-02-02T01:08:41.295Z,95.00
2019-02-02T01:09:45.347Z,95.20
2019-02-02T01:10:49.714Z,95.30
2019-02-02T01:11:53.703Z,95.20
2019-02-02T01:12:57.515Z,94.50
2019-02-02T01:14:01.425Z,94.50
2019-02-02T01:15:05.687Z,94.60
2019-02-02T01:16:09.714Z,95.30
2019-02-02T01:17:14.439Z,95.60
2019-02-02T01:18:18.543Z,95.60
2019-02-02T01:19:22.560Z,95.30
2019-02-02T01:20:26.704Z,95.30
2019-02-02T01:21:30.690Z,95.20
2019-02-02T01:22:34.599Z,94.50
2019-02-02T01:23:38.558Z,94.50
2019-02-02T01:24:42.587Z,94.90
2019-02-02T01:25:46.639Z,94.50
2019-02-02T01:26:50.847Z,94.10
2019-02-02T01:28:04.928Z,94.40
2019-02-02T01:29:00.752Z,94.60
2019-02-02T01:30:06.593Z,94.70
2019-02-02T01:31:10.543Z,94.60
2019-02-02T01:32:14.463Z,94.70
2019-02-02T01:33:18.380Z,95.20
2019-02-02T01:34:22.401Z,95.20
2019-02-02T01:35:26.530Z,95.00
2019-02-02T01:36:30.782Z,95.00
2019-02-02T01:37:34.694Z,95.00
2019-02-02T01:38:38.805Z,94.80
2019-02-02T01:39:42.603Z,94.70
2019-02-02T01:40:46.621Z,94.70
2019-02-02T01:41:50.643Z,94.90
2019-02-02T01:42:54.857Z,95.10
2019-02-02T01:43:58.891Z,94.60
2019-02-02T01:45:02.997Z,94.30
2019-02-02T01:46:06.795Z,94.70
2019-02-02T01:47:10.740Z,95.20
2019-02-02T01:48:14.855Z,95.00
2019-02-02T01:49:18.759Z,94.90
2019-02-02T01:50:24.040Z,94.70
2019-02-02T01:51:28.152Z,94.50
2019-02-02T01:52:32.365Z,94.70
2019-02-02T01:53:36.459Z,94.80
2019-02-02T01:54:40.507Z,94.80
2019-02-02T01:55:44.591Z,95.20
2019-02-02T01:56:48.602Z,94.70
2019-02-02T01:57:52.581Z,94.40
2019-02-02T01:58:56.679Z,95.10
2019-02-02T02:00:00.611Z,94.70
2019-02-02T02:01:04.960Z,94.60
2019-02-02T02:02:08.946Z,95.00
2019-02-02T02:03:12.961Z,94.70
2019-02-02T02:04:17.005Z,94.90
2019-02-02T02:05:21.015Z,95.10
2019-02-02T02:06:25.045Z,95.40
2019-02-02T02:07:28.864Z,95.50
2019-02-02T02:08:32.665Z,95.40
2019-02-02T02:09:36.525Z,95.60
2019-02-02T02:10:40.543Z,95.80
2019-02-02T02:11:44.609Z,95.50
2019-02-02T02:12:48.721Z,95.90
2019-02-02T02:13:52.728Z,95.60
2019-02-02T02:14:56.772Z,95.70
2019-02-02T02:16:01.245Z,96.10
2019-02-02T02:17:05.356Z,95.80
2019-02-02T02:18:09.360Z,96.00
2019-02-02T02:19:13.459Z,96.00
2019-02-02T02:20:17.939Z,95.80
2019-02-02T02:21:21.957Z,95.60
2019-02-02T02:22:26.052Z,96.10
2019-02-02T02:23:29.985Z,96.70
2019-02-02T02:24:33.999Z,96.60
2019-02-02T02:25:38.154Z,95.90
2019-02-02T02:26:42.283Z,96.60
2019-02-02T02:27:46.299Z,96.20
2019-02-02T02:28:50.137Z,95.60
2019-02-02T02:29:54.138Z,95.60
2019-02-02T02:30:58.147Z,95.20
2019-02-02T02:32:02.306Z,95.60
2019-02-02T02:33:06.373Z,95.60
2019-02-02T02:34:10.363Z,95.90
2019-02-02T02:35:14.289Z,96.00
2019-02-02T02:36:18.323Z,96.50
2019-02-02T02:37:22.133Z,95.70
2019-02-02T02:38:26.068Z,96.10
2019-02-02T02:39:30.088Z,96.20
2019-02-02T02:40:34.111Z,96.10
2019-02-02T02:41:38.130Z,96.40
2019-02-02T02:42:41.985Z,96.70
2019-02-02T02:43:46.115Z,96.50
2019-02-02T02:44:50.112Z,96.30
2019-02-02T02:45:54.122Z,95.90
2019-02-02T02:46:58.151Z,96.20
2019-02-02T02:48:02.187Z,96.30
2019-02-02T02:49:06.227Z,96.10
2019-02-02T02:50:12.766Z,96.10
2019-02-02T02:51:16.971Z,95.50
2019-02-02T02:52:20.822Z,95.80
2019-02-02T02:53:24.825Z,95.60
2019-02-02T02:54:28.922Z,95.90
2019-02-02T02:55:32.898Z,96.20
2019-02-02T02:56:36.925Z,95.50
2019-02-02T02:57:41.008Z,95.50
2019-02-02T02:58:44.927Z,95.70
2019-02-02T02:59:48.811Z,96.00
2019-02-02T03:00:52.817Z,95.90
2019-02-02T03:01:56.992Z,95.40
2019-02-02T03:03:01.016Z,95.50
2019-02-02T03:04:05.105Z,95.40
2019-02-02T03:05:09.862Z,95.50
2019-02-02T03:06:13.891Z,95.60
2019-02-02T03:07:19.581Z,96.20
2019-02-02T03:08:23.935Z,95.80
2019-02-02T03:09:27.967Z,95.80
2019-02-02T03:10:32.081Z,96.10
2019-02-02T03:11:36.516Z,96.30
2019-02-02T03:12:40.954Z,96.70
2019-02-02T03:13:44.900Z,96.20
2019-02-02T03:14:48.827Z,96.30
2019-02-02T03:15:52.883Z,96.00
2019-02-02T03:16:56.732Z,95.80
2019-02-02T03:18:00.931Z,96.10
2019-02-02T03:19:04.840Z,96.00
2019-02-02T03:20:09.345Z,96.10
2019-02-02T03:21:13.381Z,96.30
2019-02-02T03:22:17.410Z,96.40
2019-02-02T03:23:21.556Z,96.40
2019-02-02T03:24:25.505Z,96.30
2019-02-02T03:25:29.335Z,96.20
2019-02-02T03:26:33.365Z,96.00
2019-02-02T03:27:37.258Z,96.10
2019-02-02T03:28:52.935Z,96.40
2019-02-02T03:29:46.880Z,96.70
2019-02-02T03:30:50.835Z,96.70
2019-02-02T03:31:54.967Z,96.20
2019-02-02T03:32:58.953Z,95.80
2019-02-02T03:34:02.991Z,95.90
2019-02-02T03:35:07.711Z,96.30
2019-02-02T03:36:11.639Z,95.50
2019-02-02T03:37:15.741Z,95.80
2019-02-02T03:38:20.013Z,95.30
2019-02-02T03:39:24.211Z,95.70
2019-02-02T03:40:28.343Z,96.00
2019-02-02T03:41:32.360Z,96.10
2019-02-02T03:42:36.358Z,96.60
2019-02-02T03:43:40.246Z,96.30
2019-02-02T03:44:44.300Z,96.70
2019-02-02T03:45:48.316Z,96.60
2019-02-02T03:46:52.335Z,96.50
2019-02-02T03:47:56.339Z,96.00
2019-02-02T03:49:00.379Z,95.80
2019-02-02T03:50:05.277Z,95.70
2019-02-02T03:51:09.613Z,96.10
2019-02-02T03:52:13.623Z,95.80
2019-02-02T03:53:17.527Z,96.00
2019-02-02T03:54:21.452Z,96.20
2019-02-02T03:55:25.692Z,96.50
2019-02-02T03:56:29.767Z,96.00
2019-02-02T03:57:33.783Z,96.60
2019-02-02T03:58:37.879Z,96.30
2019-02-02T03:59:41.995Z,95.60
2019-02-02T04:00:46.139Z,95.90
2019-02-02T04:01:50.057Z,96.40
2019-02-02T04:02:54.009Z,97.10
2019-02-02T04:03:58.033Z,96.80
2019-02-02T04:05:02.175Z,96.90
2019-02-02T04:06:06.189Z,96.40
2019-02-02T04:07:10.188Z,96.50
2019-02-02T04:08:14.124Z,96.50
2019-02-02T04:09:18.291Z,96.40
2019-02-02T04:10:22.304Z,96.50
2019-02-02T04:11:26.312Z,96.50
2019-02-02T04:12:30.219Z,96.10
2019-02-02T04:13:34.243Z,96.30
2019-02-02T04:14:38.019Z,95.80
2019-02-02T04:15:41.959Z,95.80
2019-02-02T04:16:46.125Z,96.50
2019-02-02T04:17:50.237Z,96.20
2019-02-02T04:18:54.368Z,96.60
2019-02-02T04:19:58.509Z,96.60
2019-02-02T04:21:02.485Z,96.60
2019-02-02T04:22:06.428Z,96.60
2019-02-02T04:23:10.429Z,96.20
2019-02-02T04:24:14.465Z,95.90
2019-02-02T04:25:19.327Z,96.20
2019-02-02T04:26:23.261Z,95.90
2019-02-02T04:27:27.295Z,96.40
2019-02-02T04:28:31.315Z,96.40
2019-02-02T04:29:35.215Z,96.30
2019-02-02T04:30:39.213Z,96.60
2019-02-02T04:31:43.331Z,96.50
2019-02-02T04:32:47.377Z,96.30
2019-02-02T04:33:51.406Z,96.50
2019-02-02T04:34:55.326Z,96.70
2019-02-02T04:35:59.331Z,97.00
2019-02-02T04:37:03.419Z,96.70
2019-02-02T04:38:07.532Z,96.60
2019-02-02T04:39:11.635Z,96.60
2019-02-02T04:40:15.563Z,97.00
2019-02-02T04:41:19.525Z,97.00
2019-02-02T04:42:23.453Z,97.10
2019-02-02T04:43:27.583Z,97.00
2019-02-02T04:44:31.399Z,97.20
2019-02-02T04:45:35.328Z,97.20
2019-02-02T04:46:39.432Z,97.60
2019-02-02T04:47:43.347Z,97.50
2019-02-02T04:48:47.411Z,97.10
2019-02-02T04:49:51.227Z,97.20
2019-02-02T04:50:55.137Z,96.70
2019-02-02T04:51:59.237Z,97.00
2019-02-02T04:53:03.267Z,96.20
2019-02-02T04:54:07.386Z,96.10
2019-02-02T04:55:12.445Z,96.90
2019-02-02T04:56:16.579Z,96.50
2019-02-02T04:57:20.579Z,96.70
2019-02-02T04:58:24.651Z,97.00
2019-02-02T04:59:29.605Z,97.00
2019-02-02T05:00:33.685Z,97.00
2019-02-02T05:01:37.727Z,97.00
2019-02-02T05:02:41.745Z,97.60
2019-02-02T05:03:45.765Z,97.70
2019-02-02T05:04:49.652Z,97.90
2019-02-02T05:05:53.743Z,98.00
2019-02-02T05:06:57.801Z,97.90
2019-02-02T05:08:01.829Z,97.50
2019-02-02T05:09:07.819Z,97.00
2019-02-02T05:10:13.988Z,97.00
2019-02-02T05:11:17.973Z,97.00
2019-02-02T05:12:21.988Z,97.10
2019-02-02T05:13:25.983Z,96.90
2019-02-02T05:14:30.089Z,96.90
2019-02-02T05:15:33.914Z,96.90
2019-02-02T05:16:37.947Z,97.10
2019-02-02T05:17:42.012Z,97.10
2019-02-02T05:18:45.952Z,97.00
2019-02-02T05:19:49.965Z,97.00
2019-02-02T05:20:53.896Z,96.70
2019-02-02T05:21:57.999Z,96.90
2019-02-02T05:23:01.901Z,96.70
2019-02-02T05:24:05.958Z,96.80
2019-02-02T05:25:09.907Z,96.80
2019-02-02T05:26:14.197Z,97.10
2019-02-02T05:27:18.354Z,96.60
2019-02-02T05:28:22.139Z,97.10
2019-02-02T05:29:26.079Z,97.50
2019-02-02T05:30:30.874Z,97.60
2019-02-02T05:31:35.023Z,97.10
2019-02-02T05:32:39.011Z,96.40
2019-02-02T05:33:42.913Z,97.20
2019-02-02T05:34:47.031Z,97.00
2019-02-02T05:35:51.189Z,97.10
2019-02-02T05:36:55.206Z,96.60
2019-02-02T05:37:59.187Z,97.10
2019-02-02T05:39:04.170Z,96.80
2019-02-02T05:40:10.088Z,96.70
2019-02-02T05:41:14.009Z,96.90
2019-02-02T05:42:18.145Z,97.30
2019-02-02T05:43:22.267Z,96.90
2019-02-02T05:44:26.257Z,96.80
2019-02-02T05:45:30.295Z,97.40
2019-02-02T05:46:34.206Z,97.50
2019-02-02T05:47:38.396Z,97.10
2019-02-02T05:48:42.482Z,96.80
2019-02-02T05:49:49.476Z,96.20
2019-02-02T05:50:52.279Z,96.00
2019-02-02T05:51:56.324Z,96.10
2019-02-02T05:53:00.229Z,96.00
2019-02-02T05:54:04.230Z,96.00
2019-02-02T05:55:09.765Z,96.00
2019-02-02T05:56:13.739Z,96.80
2019-02-02T05:57:17.908Z,97.00
2019-02-02T05:58:21.897Z,96.80
2019-02-02T05:59:25.816Z,97.00
2019-02-02T06:00:42.901Z,97.60
2019-02-02T06:01:46.937Z,97.50
2019-02-02T06:02:50.996Z,96.80
2019-02-02T06:03:55.006Z,97.40
2019-02-02T06:04:58.895Z,97.60
2019-02-02T06:06:02.901Z,97.30
2019-02-02T06:07:06.925Z,97.70
2019-02-02T06:08:11.011Z,97.30
2019-02-02T06:09:15.122Z,97.20
2019-02-02T06:10:19.189Z,96.70
2019-02-02T06:11:23.379Z,97.30
2019-02-02T06:12:27.237Z,96.90
2019-02-02T06:13:31.319Z,96.70
2019-02-02T06:14:35.223Z,96.60
2019-02-02T06:15:39.229Z,96.50
2019-02-02T06:16:43.233Z,96.80
2019-02-02T06:17:47.633Z,96.10
2019-02-02T06:18:51.689Z,96.30
2019-02-02T06:19:55.594Z,96.00
2019-02-02T06:20:59.694Z,96.00
2019-02-02T06:22:03.723Z,96.30
2019-02-02T06:23:07.864Z,96.70
2019-02-02T06:24:11.752Z,96.00
2019-02-02T06:25:15.894Z,96.20
2019-02-02T06:26:19.755Z,96.30
2019-02-02T06:27:23.753Z,96.70
2019-02-02T06:28:27.907Z,96.60
2019-02-02T06:29:31.827Z,96.60
2019-02-02T06:30:35.953Z,97.10
2019-02-02T06:31:39.973Z,97.20
2019-02-02T06:32:43.971Z,96.90
2019-02-02T06:33:47.942Z,96.60
2019-02-02T06:34:51.963Z,96.60
2019-02-02T06:35:55.996Z,96.80
2019-02-02T06:37:00.097Z,96.90
2019-02-02T06:38:04.109Z,96.70
2019-02-02T06:39:08.535Z,97.00
2019-02-02T06:40:13.281Z,96.90
2019-02-02T06:41:17.303Z,96.90
2019-02-02T06:42:21.581Z,96.70
2019-02-02T06:43:25.673Z,96.60
2019-02-02T06:44:29.639Z,96.60
2019-02-02T06:45:35.397Z,96.60
2019-02-02T06:46:43.695Z,96.60
2019-02-02T06:47:45.494Z,96.20
2019-02-02T06:48:49.403Z,96.30
2019-02-02T06:49:53.361Z,96.80
2019-02-02T06:50:57.364Z,97.20
2019-02-02T06:52:01.404Z,97.10
2019-02-02T06:53:05.897Z,97.20
2019-02-02T06:54:09.803Z,97.00
2019-02-02T06:55:14.362Z,97.20
2019-02-02T06:56:18.507Z,97.20
2019-02-02T06:57:22.295Z,97.50
2019-02-02T06:58:26.303Z,97.40
2019-02-02T06:59:30.432Z,97.50
2019-02-02T07:00:34.519Z,97.30
2019-02-02T07:01:38.553Z,98.30
2019-02-02T07:02:42.688Z,97.50
2019-02-02T07:03:46.665Z,97.40
2019-02-02T07:04:50.687Z,97.20
2019-02-02T07:05:54.717Z,96.90
2019-02-02T07:06:58.786Z,97.00
2019-02-02T07:08:02.800Z,97.20
2019-02-02T07:09:08.614Z,97.00
2019-02-02T07:10:15.816Z,97.20
2019-02-02T07:11:19.963Z,97.60
2019-02-02T07:12:23.871Z,97.40
2019-02-02T07:13:27.829Z,97.10
2019-02-02T07:14:31.829Z,97.80
2019-02-02T07:15:36.010Z,97.60
2019-02-02T07:16:39.919Z,97.30
2019-02-02T07:17:43.824Z,97.30
2019-02-02T07:18:47.849Z,96.70
2019-02-02T07:19:51.651Z,97.20
2019-02-02T07:20:55.701Z,97.20
2019-02-02T07:21:59.822Z,97.90
2019-02-02T07:23:04.092Z,97.80
2019-02-02T07:24:08.115Z,97.60
2019-02-02T07:25:12.182Z,97.30
2019-02-02T07:26:16.361Z,97.70
2019-02-02T07:27:20.292Z,98.50
2019-02-02T07:28:24.075Z,98.90
2019-02-02T07:29:28.171Z,99.20
2019-02-02T07:30:32.077Z,99.70
2019-02-02T07:31:36.129Z,99.80
2019-02-02T07:32:40.289Z,99.80
2019-02-02T07:33:44.421Z,99.90
2019-02-02T07:34:48.437Z,99.90
2019-02-02T07:35:54.222Z,99.90
2019-02-02T07:36:58.268Z,99.80
2019-02-02T07:38:02.164Z,99.70
2019-02-02T07:39:07.815Z,99.50
2019-02-02T07:40:12.887Z,99.70
2019-02-02T07:41:16.862Z,99.90
2019-02-02T07:42:20.937Z,99.90
2019-02-02T07:43:24.971Z,99.90
2019-02-02T07:44:29.269Z,99.90
2019-02-02T07:45:33.251Z,99.90
2019-02-02T07:46:37.352Z,99.90
2019-02-02T07:47:41.402Z,99.90
2019-02-02T07:48:45.492Z,99.90
2019-02-02T07:49:49.718Z,99.90
2019-02-02T07:50:54.118Z,99.90
2019-02-02T07:51:58.255Z,99.90
2019-02-02T07:53:02.359Z,99.90
2019-02-02T07:54:06.315Z,99.90
2019-02-02T07:55:11.393Z,99.90
2019-02-02T07:56:15.527Z,99.90
2019-02-02T07:57:19.780Z,99.90
2019-02-02T07:58:23.891Z,99.90
2019-02-02T07:59:28.011Z,99.90
2019-02-02T08:00:40.695Z,99.90
2019-02-02T08:01:39.798Z,99.90
2019-02-02T08:02:43.714Z,99.90
2019-02-02T08:03:47.607Z,99.90
2019-02-02T08:04:51.503Z,99.90
2019-02-02T08:05:55.514Z,99.90
2019-02-02T08:06:59.626Z,99.90
2019-02-02T08:08:03.517Z,99.90
2019-02-02T08:09:09.151Z,99.90
2019-02-02T08:10:13.061Z,99.90
2019-02-02T08:11:17.095Z,99.90
2019-02-02T08:12:21.055Z,99.90
2019-02-02T08:13:25.068Z,99.90
2019-02-02T08:14:28.972Z,99.90
2019-02-02T08:15:33.341Z,99.90
2019-02-02T08:16:37.412Z,99.90
2019-02-02T08:17:41.344Z,99.90
2019-02-02T08:18:45.452Z,99.90
2019-02-02T08:19:49.347Z,99.90
2019-02-02T08:20:53.125Z,99.90
2019-02-02T08:21:57.032Z,99.90
2019-02-02T08:23:00.947Z,99.90
2019-02-02T08:24:04.934Z,99.90
2019-02-02T08:25:09.972Z,99.90
2019-02-02T08:26:13.970Z,99.90
2019-02-02T08:27:18.018Z,99.90
2019-02-02T08:28:22.026Z,99.90
2019-02-02T08:29:26.123Z,99.90
2019-02-02T08:30:35.433Z,99.90
2019-02-02T08:31:38.262Z,99.90
2019-02-02T08:32:42.376Z,99.90
2019-02-02T08:33:46.513Z,99.90
2019-02-02T08:34:50.529Z,99.90
2019-02-02T08:35:54.666Z,99.90
2019-02-02T08:36:58.446Z,99.90
2019-02-02T08:38:02.589Z,99.90
2019-02-02T08:39:09.417Z,99.90
2019-02-02T08:40:15.429Z,99.90
2019-02-02T08:41:19.590Z,99.90
2019-02-02T08:42:23.595Z,99.90
2019-02-02T08:43:27.712Z,99.90
2019-02-02T08:44:31.627Z,99.90
2019-02-02T08:45:35.558Z,99.90
2019-02-02T08:46:39.711Z,99.90
2019-02-02T08:47:43.980Z,99.90
2019-02-02T08:48:47.987Z,99.90
2019-02-02T08:49:52.028Z,99.90
2019-02-02T08:50:56.058Z,99.90
2019-02-02T08:52:00.165Z,99.90
2019-02-02T08:53:04.195Z,99.90
2019-02-02T08:54:08.263Z,99.90
2019-02-02T08:55:12.508Z,99.90
2019-02-02T08:56:16.440Z,99.90
2019-02-02T08:57:20.433Z,99.90
2019-02-02T08:58:24.453Z,99.90
2019-02-02T08:59:28.707Z,99.90
2019-02-02T09:00:32.848Z,99.90
2019-02-02T09:01:36.896Z,99.90
2019-02-02T09:02:40.970Z,99.90
2019-02-02T09:03:45.082Z,99.90
2019-02-02T09:04:49.145Z,99.90
2019-02-02T09:05:53.243Z,99.90
2019-02-02T09:06:57.375Z,99.90
2019-02-02T09:08:01.386Z,99.90
2019-02-02T09:09:08.309Z,99.90
2019-02-02T09:10:15.081Z,99.90
2019-02-02T09:11:18.987Z,99.90
2019-02-02T09:12:23.135Z,99.90
2019-02-02T09:13:27.309Z,99.90
2019-02-02T09:14:31.224Z,99.90
2019-02-02T09:15:35.298Z,99.90
2019-02-02T09:16:39.355Z,99.90
2019-02-02T09:17:43.407Z,99.90
2019-02-02T09:18:47.311Z,99.90
2019-02-02T09:19:51.315Z,99.90
2019-02-02T09:20:55.266Z,99.90
2019-02-02T09:21:59.127Z,99.90
2019-02-02T09:23:06.566Z,99.90
2019-02-02T09:24:08.800Z,99.90
2019-02-02T09:25:13.934Z,99.90
2019-02-02T09:26:17.960Z,99.90
2019-02-02T09:27:22.031Z,99.90
2019-02-02T09:28:25.956Z,99.90
2019-02-02T09:29:29.968Z,99.90
2019-02-02T09:30:36.086Z,99.90
2019-02-02T09:31:40.123Z,99.90
2019-02-02T09:32:44.103Z,99.90
2019-02-02T09:33:48.200Z,99.90
2019-02-02T09:34:52.210Z,99.90
2019-02-02T09:35:56.129Z,99.90
2019-02-02T09:37:00.056Z,99.90
2019-02-02T09:38:03.874Z,99.90
2019-02-02T09:39:08.803Z,99.90
2019-02-02T09:40:14.346Z,99.90
2019-02-02T09:41:18.668Z,99.90
2019-02-02T09:42:22.661Z,99.90
2019-02-02T09:43:26.819Z,99.90
2019-02-02T09:44:31.027Z,99.90
2019-02-02T09:45:35.028Z,99.90
2019-02-02T09:46:39.020Z,99.90
2019-02-02T09:47:42.947Z,99.90
2019-02-02T09:48:47.024Z,99.90
2019-02-02T09:49:51.021Z,99.90
2019-02-02T09:50:55.078Z,99.90
2019-02-02T09:51:59.085Z,99.90
2019-02-02T09:53:02.905Z,99.90
2019-02-02T09:54:09.093Z,99.90
2019-02-02T09:55:14.473Z,99.90
2019-02-02T09:56:18.402Z,99.90
2019-02-02T09:57:22.415Z,99.90
2019-02-02T09:58:26.535Z,99.90
2019-02-02T09:59:30.915Z,99.90
2019-02-02T10:00:34.936Z,99.90
2019-02-02T10:01:38.931Z,99.90
2019-02-02T10:02:45.911Z,99.90
2019-02-02T10:03:48.604Z,99.90
2019-02-02T10:04:52.935Z,99.90
2019-02-02T10:05:56.845Z,99.90
2019-02-02T10:07:00.858Z,99.90
2019-02-02T10:08:04.960Z,99.90
2019-02-02T10:09:09.538Z,99.90
2019-02-02T10:10:16.543Z,99.90
2019-02-02T10:11:20.591Z,99.90
2019-02-02T10:12:24.690Z,99.90
2019-02-02T10:13:28.577Z,99.90
2019-02-02T10:14:32.687Z,99.90
2019-02-02T10:15:36.617Z,99.90
2019-02-02T10:16:40.603Z,99.90
2019-02-02T10:17:44.630Z,99.90
2019-02-02T10:18:48.515Z,99.90
2019-02-02T10:19:52.525Z,99.90
2019-02-02T10:21:03.691Z,99.90
2019-02-02T10:22:02.353Z,99.90
2019-02-02T10:23:06.493Z,99.90
2019-02-02T10:24:10.565Z,99.90
2019-02-02T10:25:16.824Z,99.90
2019-02-02T10:26:20.862Z,99.90
2019-02-02T10:27:24.873Z,99.90
2019-02-02T10:28:29.066Z,99.90
2019-02-02T10:29:33.221Z,99.90
2019-02-02T10:30:39.727Z,99.90
2019-02-02T10:31:43.624Z,99.90
2019-02-02T10:32:47.725Z,99.90
2019-02-02T10:33:51.714Z,99.90
2019-02-02T10:34:55.535Z,99.90
2019-02-02T10:35:59.581Z,99.90
2019-02-02T10:37:03.514Z,99.90
2019-02-02T10:38:07.667Z,99.90
2019-02-02T10:39:11.794Z,99.90
2019-02-02T10:40:15.937Z,99.90
2019-02-02T10:41:19.971Z,99.90
2019-02-02T10:42:23.973Z,99.90
2019-02-02T10:43:28.134Z,99.90
2019-02-02T10:44:31.931Z,99.90
2019-02-02T10:45:35.873Z,99.90
2019-02-02T10:46:39.924Z,99.90
2019-02-02T10:47:43.863Z,99.90
2019-02-02T10:48:47.929Z,99.90
2019-02-02T10:49:52.004Z,99.90
2019-02-02T10:50:55.816Z,99.90
2019-02-02T10:51:59.927Z,99.90
2019-02-02T10:53:04.055Z,99.90
2019-02-02T10:54:07.953Z,99.90
2019-02-02T10:55:12.512Z,99.90
2019-02-02T10:56:16.512Z,99.90
2019-02-02T10:57:20.510Z,99.90
2019-02-02T10:58:24.511Z,99.90
2019-02-02T10:59:28.415Z,99.90
2019-02-02T11:00:34.323Z,99.90
2019-02-02T11:01:38.422Z,99.90
2019-02-02T11:02:42.358Z,99.90
2019-02-02T11:03:46.440Z,99.90
2019-02-02T11:04:53.398Z,99.90
2019-02-02T11:05:56.115Z,99.90
2019-02-02T11:07:00.326Z,99.90
2019-02-02T11:08:05.067Z,99.90
2019-02-02T11:09:09.862Z,99.90
2019-02-02T11:10:19.439Z,99.90
2019-02-02T11:11:23.460Z,99.90
2019-02-02T11:12:27.754Z,99.90
2019-02-02T11:13:31.795Z,99.90
2019-02-02T11:14:35.872Z,99.90
2019-02-02T11:15:39.855Z,99.90
2019-02-02T11:16:43.991Z,99.90
2019-02-02T11:17:48.188Z,99.90
2019-02-02T11:18:52.276Z,99.90
2019-02-02T11:19:56.363Z,99.90
2019-02-02T11:21:00.599Z,99.90
2019-02-02T11:22:04.779Z,99.90
2019-02-02T11:23:09.013Z,99.90
2019-02-02T11:24:13.307Z,99.90
2019-02-02T11:25:17.464Z,99.90
2019-02-02T11:26:21.573Z,99.90
2019-02-02T11:27:25.707Z,99.90
2019-02-02T11:28:29.891Z,99.90
2019-02-02T11:29:33.800Z,99.90
2019-02-02T11:30:38.043Z,99.90
2019-02-02T11:31:42.087Z,99.90
2019-02-02T11:32:45.994Z,99.90
2019-02-02T11:33:50.389Z,99.90
2019-02-02T11:34:54.292Z,99.90
2019-02-02T11:35:58.432Z,99.90
2019-02-02T11:37:02.463Z,99.90
2019-02-02T11:38:06.441Z,99.90
2019-02-02T11:39:10.515Z,99.90
2019-02-02T11:40:34.889Z,99.90
2019-02-02T11:41:38.791Z,99.90
2019-02-02T11:42:42.824Z,99.90
2019-02-02T11:43:53.347Z,99.90
2019-02-02T11:44:57.515Z,99.90
2019-02-02T11:46:01.564Z,99.90
2019-02-02T11:47:05.499Z,99.90
2019-02-02T11:48:09.391Z,99.90
2019-02-02T11:49:13.322Z,99.90
2019-02-02T11:50:17.552Z,99.90
2019-02-02T11:51:21.597Z,99.90
2019-02-02T11:52:25.518Z,99.90
2019-02-02T11:53:29.512Z,99.90
2019-02-02T11:54:33.501Z,99.90
2019-02-02T11:55:37.570Z,99.90
2019-02-02T11:56:41.694Z,99.90
2019-02-02T11:57:45.623Z,99.90
2019-02-02T11:58:49.710Z,99.90
2019-02-02T11:59:53.811Z,99.90
2019-02-02T12:00:57.748Z,99.90
2019-02-02T12:02:01.735Z,99.90
2019-02-02T12:03:05.609Z,99.90
2019-02-02T12:04:09.719Z,99.90
2019-02-02T12:05:15.261Z,99.90
2019-02-02T12:06:19.258Z,99.90
2019-02-02T12:07:23.189Z,99.90
2019-02-02T12:08:27.328Z,99.90
2019-02-02T12:09:31.256Z,99.90
2019-02-02T12:10:35.371Z,99.90
2019-02-02T12:11:39.366Z,99.90
2019-02-02T12:12:43.266Z,99.90
2019-02-02T12:13:47.295Z,99.90
2019-02-02T12:14:51.100Z,99.90
2019-02-02T12:15:55.018Z,99.90
2019-02-02T12:16:59.130Z,99.90
2019-02-02T12:18:03.022Z,99.90
2019-02-02T12:19:07.033Z,99.90
2019-02-02T12:20:12.580Z,99.90
2019-02-02T12:21:16.368Z,99.90
2019-02-02T12:22:20.331Z,99.90
2019-02-02T12:23:24.464Z,99.90
2019-02-02T12:24:28.380Z,99.90
2019-02-02T12:25:32.284Z,99.90
2019-02-02T12:26:36.287Z,99.90
2019-02-02T12:27:40.194Z,99.90
2019-02-02T12:28:44.259Z,99.90
2019-02-02T12:29:48.153Z,99.90
2019-02-02T12:30:52.172Z,99.90
2019-02-02T12:31:56.397Z,99.90
2019-02-02T12:33:02.969Z,99.90
2019-02-02T12:34:06.131Z,99.90
2019-02-02T12:35:13.013Z,99.90
2019-02-02T12:36:16.820Z,99.90
2019-02-02T12:37:20.848Z,99.90
2019-02-02T12:38:24.767Z,99.90
2019-02-02T12:39:28.882Z,99.90
2019-02-02T12:40:32.801Z,99.90
2019-02-02T12:41:36.610Z,99.90
2019-02-02T12:42:40.880Z,99.90
2019-02-02T12:43:45.005Z,99.90
2019-02-02T12:44:48.935Z,99.90
2019-02-02T12:45:54.122Z,99.90
2019-02-02T12:46:58.343Z,99.90
2019-02-02T12:48:02.454Z,99.90
2019-02-02T12:49:06.478Z,99.90
2019-02-02T12:50:11.453Z,99.90
2019-02-02T12:51:15.367Z,99.90
2019-02-02T12:52:19.163Z,99.90
2019-02-02T12:53:23.045Z,99.90
2019-02-02T12:54:26.829Z,99.90
2019-02-02T12:55:30.740Z,99.90
2019-02-02T12:56:34.633Z,99.90
2019-02-02T12:57:38.732Z,99.90
2019-02-02T12:58:42.888Z,99.90
2019-02-02T12:59:47.164Z,99.90
2019-02-02T13:00:51.227Z,99.90
2019-02-02T13:01:55.250Z,99.90
2019-02-02T13:02:59.195Z,99.90
2019-02-02T13:04:05.531Z,99.90
2019-02-02T13:05:09.143Z,99.90
2019-02-02T13:06:13.273Z,99.90
2019-02-02T13:07:17.287Z,99.90
2019-02-02T13:08:21.433Z,99.90
2019-02-02T13:09:25.230Z,99.90
2019-02-02T13:10:29.419Z,99.90
2019-02-02T13:11:33.524Z,99.90
2019-02-02T13:12:37.452Z,99.90
2019-02-02T13:13:42.702Z,99.90
2019-02-02T13:14:46.923Z,99.90
2019-02-02T13:15:50.956Z,99.90
2019-02-02T13:16:54.876Z,99.90
2019-02-02T13:17:58.721Z,99.90
2019-02-02T13:19:03.245Z,99.90
2019-02-02T13:20:07.956Z,99.90
2019-02-02T13:21:11.970Z,99.90
2019-02-02T13:22:15.825Z,99.90
2019-02-02T13:23:19.824Z,99.90
2019-02-02T13:24:23.869Z,99.90
2019-02-02T13:25:28.055Z,99.90
2019-02-02T13:26:32.123Z,99.90
2019-02-02T13:27:36.099Z,99.90
2019-02-02T13:28:40.079Z,99.90
2019-02-02T13:29:43.881Z,99.90
2019-02-02T13:30:47.985Z,99.90
2019-02-02T13:31:52.158Z,99.90
2019-02-02T13:32:56.211Z,99.90
2019-02-02T13:34:00.295Z,99.90
2019-02-02T13:35:04.873Z,99.90
2019-02-02T13:36:08.871Z,99.90
2019-02-02T13:37:12.773Z,99.90
2019-02-02T13:38:16.753Z,99.90
2019-02-02T13:39:20.861Z,99.90
2019-02-02T13:40:25.049Z,99.90
2019-02-02T13:41:29.088Z,99.90
2019-02-02T13:42:33.144Z,99.90
2019-02-02T13:43:37.331Z,99.90
2019-02-02T13:44:41.257Z,99.90
2019-02-02T13:45:45.159Z,99.90
2019-02-02T13:46:49.073Z,99.90